Time;durP1;ratioP1;P1;durP2;ratioP2;P2;SDS_P1;SDS_P2;PMS_P1;PMS_P2;Temp;Humidity;BMP_temperature;BMP_pressure;BME280_temperature;BME280_humidity;BME280_pressure;Samples;Min_cycle;Max_cycle;Signal;HPM_P1;HPM_P2
2024/01/25 00:00:55;;;;;;;16.67;4.70;;;;;;;14.69;48.61;99940.59;6735014;29;20216;-81
2024/01/25 00:04:18;;;;;;;14.73;4.20;;;;;;;14.63;49.08;99944.09;6733912;29;20378;-80
2024/01/25 00:07:46;;;;;;;19.10;5.00;;;;;;;14.40;49.74;99951.75;6733416;29;20240;-81
2024/01/25 00:11:09;;;;;;;16.70;4.70;;;;;;;14.51;49.68;99936.78;6733884;29;20202;-80
2024/01/25 00:14:30;;;;;;;26.83;4.70;;;;;;;14.58;49.81;99933.03;6733765;29;20212;-80
2024/01/25 00:17:52;;;;;;;16.47;4.50;;;;;;;14.86;49.08;99917.44;6733257;29;20210;-81
2024/01/25 00:21:15;;;;;;;14.73;4.63;;;;;;;14.58;49.89;99924.06;6734351;29;20269;-80
2024/01/25 00:24:36;;;;;;;16.93;4.83;;;;;;;14.87;49.73;99927.25;6734026;29;20685;-80
2024/01/25 00:27:58;;;;;;;21.20;5.00;;;;;;;14.71;49.94;99918.66;6727235;29;20334;-80
2024/01/25 00:31:19;;;;;;;21.93;5.27;;;;;;;14.97;49.50;99924.16;6734244;29;20699;-81
2024/01/25 00:34:41;;;;;;;19.13;4.67;;;;;;;14.75;50.11;99920.75;6733556;29;20440;-80
2024/01/25 00:38:05;;;;;;;15.47;4.53;;;;;;;14.73;50.09;99911.16;6732979;29;20328;-81
2024/01/25 00:41:26;;;;;;;20.03;4.63;;;;;;;14.62;50.60;99923.44;6733232;29;20214;-80
2024/01/25 00:44:48;;;;;;;18.30;4.93;;;;;;;14.93;50.02;99921.00;6733789;29;20694;-80
2024/01/25 00:48:12;;;;;;;22.37;4.80;;;;;;;14.74;50.19;99912.84;6733292;29;20265;-80
2024/01/25 00:51:34;;;;;;;21.67;5.30;;;;;;;14.64;50.83;99918.63;6733421;29;20297;-81
2024/01/25 00:54:58;;;;;;;22.87;5.27;;;;;;;14.47;51.44;99924.63;6733379;29;20206;-81
2024/01/25 00:58:20;;;;;;;17.10;4.97;;;;;;;14.67;51.16;99925.53;6733046;29;20404;-81
2024/01/25 01:01:44;;;;;;;18.00;4.90;;;;;;;14.78;50.83;99914.94;6732780;29;20702;-80
2024/01/25 01:05:07;;;;;;;17.13;4.87;;;;;;;14.73;50.88;99901.13;6733069;29;20295;-81
2024/01/25 01:08:29;;;;;;;17.17;4.37;;;;;;;14.76;50.94;99903.44;6732486;29;20281;-80
2024/01/25 01:11:52;;;;;;;17.83;4.73;;;;;;;14.82;50.95;99918.91;6733027;29;20244;-80
2024/01/25 01:15:13;;;;;;;17.40;5.13;;;;;;;14.63;51.62;99905.28;6738825;29;20290;-81
2024/01/25 01:18:35;;;;;;;22.37;5.13;;;;;;;14.65;51.73;99893.19;6738094;29;20326;-81
2024/01/25 01:21:56;;;;;;;14.00;4.27;;;;;;;14.86;51.47;99890.28;6731755;29;20774;-82
2024/01/25 01:25:18;;;;;;;16.57;4.77;;;;;;;14.61;51.88;99901.94;6731887;29;20353;-81
2024/01/25 01:28:41;;;;;;;14.20;4.63;;;;;;;14.62;52.01;99898.19;6730757;29;20228;-81
2024/01/25 01:32:03;;;;;;;16.87;5.03;;;;;;;14.60;52.25;99894.81;6732949;29;20703;-82
2024/01/25 01:35:24;;;;;;;15.67;4.63;;;;;;;14.54;52.61;99892.94;6731959;29;20584;-81
2024/01/25 01:38:46;;;;;;;13.43;4.20;;;;;;;14.64;52.24;99896.09;6730805;29;20329;-82
2024/01/25 01:42:07;;;;;;;12.50;4.43;;;;;;;14.62;51.95;99861.00;6731103;29;20270;-81
2024/01/25 01:45:30;;;;;;;19.70;4.93;;;;;;;14.20;52.94;99877.56;6732571;29;20214;-82
2024/01/25 01:48:51;;;;;;;22.73;5.10;;;;;;;14.49;52.75;99898.13;6730278;29;20335;-81
2024/01/25 01:52:13;;;;;;;14.93;4.83;;;;;;;14.47;52.63;99890.22;6731795;29;20369;-82
2024/01/25 01:55:35;;;;;;;19.20;4.90;;;;;;;14.51;52.52;99898.78;6731842;29;20730;-81
2024/01/25 01:58:57;;;;;;;15.40;4.10;;;;;;;14.56;52.28;99904.41;6730348;29;20299;-82
2024/01/25 02:02:20;;;;;;;22.10;4.57;;;;;;;14.70;51.57;99898.81;6730575;29;20761;-81
2024/01/25 02:05:42;;;;;;;19.77;5.10;;;;;;;14.67;51.62;99904.66;6731030;29;20840;-81
2024/01/25 02:09:04;;;;;;;19.20;4.93;;;;;;;14.45;51.95;99894.16;6730589;29;20228;-81
2024/01/25 02:12:26;;;;;;;18.33;5.13;;;;;;;14.68;51.86;99900.91;6731141;29;20213;-80
2024/01/25 02:15:48;;;;;;;19.13;5.63;;;;;;;14.75;51.31;99879.22;6730698;29;20629;-81
2024/01/25 02:19:10;;;;;;;21.37;6.07;;;;;;;14.78;51.20;99895.09;6729116;29;20298;-82
2024/01/25 02:22:33;;;;;;;16.90;4.20;;;;;;;14.66;52.01;99899.44;6730188;29;20223;-81
2024/01/25 02:25:55;;;;;;;21.10;4.70;;;;;;;14.93;51.13;99891.13;6704949;29;20209;-82
2024/01/25 02:29:16;;;;;;;16.73;4.33;;;;;;;14.69;51.63;99891.72;6730761;29;20412;-81
2024/01/25 02:32:38;;;;;;;19.97;4.37;;;;;;;14.83;51.25;99904.31;6731242;29;20303;-82
2024/01/25 02:35:59;;;;;;;13.37;4.53;;;;;;;14.53;51.70;99905.69;6730264;29;20309;-81
2024/01/25 02:39:22;;;;;;;17.83;5.00;;;;;;;14.40;52.11;99899.38;6730401;29;20732;-80
2024/01/25 02:42:44;;;;;;;16.17;4.07;;;;;;;14.37;51.74;99899.75;6730564;29;20301;-81
2024/01/25 02:46:05;;;;;;;16.80;4.47;;;;;;;14.65;51.22;99903.19;6730024;29;20215;-82
2024/01/25 02:49:27;;;;;;;14.30;4.27;;;;;;;14.69;51.12;99904.47;6730903;29;20654;-82
2024/01/25 02:52:48;;;;;;;17.27;4.10;;;;;;;14.67;51.31;99901.97;6734098;29;20310;-81
2024/01/25 02:56:11;;;;;;;15.60;4.53;;;;;;;14.87;51.00;99904.72;6732246;29;20667;-82
2024/01/25 02:59:33;;;;;;;18.50;5.00;;;;;;;14.42;51.25;99883.72;6711378;29;20351;-81
2024/01/25 03:02:54;;;;;;;21.60;5.00;;;;;;;13.83;52.79;99909.66;6728722;29;20268;-81
2024/01/25 03:06:16;;;;;;;18.53;4.67;;;;;;;14.04;52.50;99902.28;6734961;29;20268;-81
2024/01/25 03:09:37;;;;;;;20.40;4.90;;;;;;;14.30;52.23;99899.75;6735990;29;21038;-81
2024/01/25 03:13:00;;;;;;;12.00;4.70;;;;;;;14.34;52.14;99913.75;6735332;29;20325;-81
2024/01/25 03:16:22;;;;;;;18.60;4.83;;;;;;;14.55;51.65;99913.59;6735311;29;20237;-81
2024/01/25 03:19:43;;;;;;;16.63;4.70;;;;;;;14.45;51.64;99910.44;6735504;29;20267;-81
2024/01/25 03:23:05;;;;;;;15.33;4.63;;;;;;;14.75;51.00;99912.63;6735397;29;20691;-80
2024/01/25 03:26:27;;;;;;;15.13;3.90;;;;;;;14.68;51.30;99917.19;6734348;29;20346;-81
2024/01/25 03:29:50;;;;;;;15.73;4.17;;;;;;;14.49;51.56;99917.97;6729016;29;20311;-81
2024/01/25 03:33:12;;;;;;;17.30;4.60;;;;;;;14.73;51.12;99917.44;6735291;29;20311;-82
2024/01/25 03:36:34;;;;;;;14.07;4.40;;;;;;;14.58;51.43;99924.06;6734471;29;20360;-81
2024/01/25 03:39:55;;;;;;;23.10;4.67;;;;;;;14.76;51.10;99932.47;6734855;29;20236;-80
2024/01/25 03:43:17;;;;;;;18.00;4.60;;;;;;;14.60;51.47;99939.09;6734936;29;20296;-81
2024/01/25 03:46:39;;;;;;;15.53;4.40;;;;;;;14.64;51.50;99948.50;6733937;29;20755;-81
2024/01/25 03:50:01;;;;;;;17.90;4.57;;;;;;;14.51;51.83;99961.19;6736204;29;20322;-81
2024/01/25 03:53:23;;;;;;;13.87;4.00;;;;;;;14.70;51.53;99953.09;6734767;29;20250;-80
2024/01/25 03:56:44;;;;;;;16.17;4.50;;;;;;;14.71;51.41;99952.09;6734001;29;20700;-80
2024/01/25 04:00:07;;;;;;;23.90;4.83;;;;;;;14.73;51.42;99955.44;6734171;29;20367;-81
2024/01/25 04:03:30;;;;;;;17.90;5.33;;;;;;;14.21;52.78;99946.25;6733280;29;20357;-81
2024/01/25 04:06:51;;;;;;;22.27;5.10;;;;;;;14.53;51.94;99948.25;6733818;29;20209;-81
2024/01/25 04:10:13;;;;;;;15.10;5.23;;;;;;;14.16;52.79;99965.75;6734564;29;20256;-80
2024/01/25 04:13:34;;;;;;;17.57;4.20;;;;;;;14.24;52.34;99964.81;6734285;29;20356;-81
2024/01/25 04:16:56;;;;;;;12.53;4.37;;;;;;;14.47;51.57;99963.47;6733589;29;20299;-81
2024/01/25 04:20:19;;;;;;;23.00;5.07;;;;;;;14.12;52.77;99972.66;6734156;29;20662;-81
2024/01/25 04:23:40;;;;;;;19.40;5.37;;;;;;;14.44;51.90;99972.00;6734741;29;20248;-81
2024/01/25 04:27:02;;;;;;;13.60;4.63;;;;;;;14.27;52.40;99957.09;6734027;29;20245;-81
2024/01/25 04:30:23;;;;;;;13.87;5.17;;;;;;;14.04;52.96;99975.50;6734331;29;20256;-82
2024/01/25 04:33:45;;;;;;;14.67;4.43;;;;;;;14.35;52.29;99980.53;6733977;29;20309;-80
2024/01/25 04:37:08;;;;;;;15.60;4.77;;;;;;;14.10;52.12;99976.59;6734130;29;20308;-81
2024/01/25 04:40:30;;;;;;;22.90;5.00;;;;;;;13.94;52.67;99974.19;6734463;29;20718;-81
2024/01/25 04:43:52;;;;;;;14.07;4.80;;;;;;;13.99;52.16;99980.69;6733166;29;20693;-80
2024/01/25 04:47:13;;;;;;;19.10;5.50;;;;;;;13.89;52.33;99990.22;6733119;29;20351;-80
2024/01/25 04:50:35;;;;;;;17.67;4.73;;;;;;;13.97;52.24;99984.63;6734604;29;20316;-81
2024/01/25 04:53:58;;;;;;;25.03;4.40;;;;;;;14.06;51.65;99969.88;6734637;29;20240;-81
2024/01/25 04:57:19;;;;;;;23.77;5.57;;;;;;;14.24;51.43;99976.50;6733819;29;20225;-81
2024/01/25 05:00:41;;;;;;;17.93;4.87;;;;;;;14.15;51.76;99990.41;6732124;29;20329;-81
2024/01/25 05:04:03;;;;;;;19.40;5.20;;;;;;;14.25;50.96;99980.03;6731540;29;20206;-81
2024/01/25 05:07:24;;;;;;;17.17;5.17;;;;;;;13.91;51.75;99996.25;6731983;29;20210;-81
2024/01/25 05:10:47;;;;;;;15.30;5.33;;;;;;;13.69;52.37;100005.50;6732344;29;20336;-81
2024/01/25 05:14:09;;;;;;;15.17;6.00;;;;;;;13.73;51.82;100010.31;6732815;29;20201;-81
2024/01/25 05:17:30;;;;;;;17.83;4.73;;;;;;;13.69;51.80;100006.31;6733254;29;20299;-81
2024/01/25 05:20:52;;;;;;;20.03;4.47;;;;;;;13.67;51.90;100007.53;6733643;29;20290;-81
2024/01/25 05:24:13;;;;;;;19.50;5.20;;;;;;;13.67;51.88;100026.50;6734569;29;20372;-81
2024/01/25 05:27:36;;;;;;;24.53;6.03;;;;;;;13.70;51.69;100035.09;6734269;29;20295;-81
2024/01/25 05:30:58;;;;;;;20.73;4.73;;;;;;;13.83;51.32;100020.81;6730161;29;20300;-81
2024/01/25 05:34:19;;;;;;;19.60;4.47;;;;;;;13.79;50.80;100025.78;6732411;29;20318;-81
2024/01/25 05:37:41;;;;;;;18.90;5.20;;;;;;;13.71;51.14;100023.22;6733079;29;20293;-81
2024/01/25 05:41:02;;;;;;;17.37;5.10;;;;;;;13.87;50.53;100022.09;6739424;29;20312;-81
2024/01/25 05:44:25;;;;;;;15.10;4.60;;;;;;;13.75;50.97;100029.09;6739517;29;20208;-81
2024/01/25 05:47:48;;;;;;;19.70;4.87;;;;;;;13.50;51.24;100020.53;6730755;29;20290;-81
2024/01/25 05:51:10;;;;;;;17.80;4.67;;;;;;;13.64;50.70;100014.19;6712546;29;20650;-80
2024/01/25 05:54:31;;;;;;;16.67;4.47;;;;;;;13.61;50.79;100025.44;6730019;29;20238;-80
2024/01/25 05:57:53;;;;;;;17.90;5.80;;;;;;;13.68;50.67;100030.91;6730071;29;20424;-80
2024/01/25 06:01:15;;;;;;;16.67;5.00;;;;;;;13.43;51.06;100040.47;6729586;29;20285;-79
2024/01/25 06:04:37;;;;;;;17.27;6.27;;;;;;;13.27;51.42;100035.31;6723823;29;20288;-80
2024/01/25 06:07:59;;;;;;;18.77;5.37;;;;;;;13.15;51.71;100020.59;6728970;29;20220;-80
2024/01/25 06:11:20;;;;;;;14.57;4.63;;;;;;;13.24;51.57;100035.69;6729820;29;20296;-80
2024/01/25 06:14:42;;;;;;;19.33;5.40;;;;;;;13.40;50.99;100041.69;6731826;29;20718;-79
2024/01/25 06:18:05;;;;;;;14.17;5.47;;;;;;;13.40;50.54;100030.03;6730681;29;20314;-80
2024/01/25 06:21:26;;;;;;;17.97;4.67;;;;;;;12.56;52.31;100030.66;6730250;29;20224;-80
2024/01/25 06:24:48;;;;;;;17.30;5.03;;;;;;;12.35;53.66;100036.00;6730113;29;20271;-81
2024/01/25 06:28:09;;;;;;;18.00;5.30;;;;;;;12.53;52.97;100038.31;6733686;29;20235;-80
2024/01/25 06:31:31;;;;;;;20.50;5.37;;;;;;;12.99;51.76;100040.59;6735368;29;20219;-80
2024/01/25 06:34:54;;;;;;;17.07;5.70;;;;;;;12.49;52.30;100037.00;6734956;29;20566;-80
2024/01/25 06:38:16;;;;;;;15.80;4.87;;;;;;;12.89;51.41;100050.88;6735270;29;20327;-80
2024/01/25 06:41:37;;;;;;;18.23;4.80;;;;;;;12.47;51.89;100052.59;6736090;29;20371;-80
2024/01/25 06:44:59;;;;;;;15.93;4.70;;;;;;;12.51;51.79;100053.91;6735913;29;20212;-80
2024/01/25 06:48:20;;;;;;;16.00;4.83;;;;;;;12.40;52.17;100076.00;6735554;29;20237;-81
2024/01/25 06:51:43;;;;;;;16.10;3.93;;;;;;;12.22;53.34;100084.47;6736272;29;20798;-81
2024/01/25 06:55:05;;;;;;;20.53;5.40;;;;;;;11.94;54.39;100096.94;6735974;29;20257;-82
2024/01/25 06:58:27;;;;;;;22.27;5.80;;;;;;;12.67;52.52;100075.34;6733922;29;20282;-82
2024/01/25 07:01:48;;;;;;;17.97;5.23;;;;;;;12.16;51.79;100093.31;6733927;29;20732;-81
2024/01/25 07:05:10;;;;;;;15.33;6.27;;;;;;;11.80;53.26;100095.00;6734825;29;20291;-82
2024/01/25 07:08:33;;;;;;;20.10;7.93;;;;;;;11.73;53.40;100093.19;6735847;29;20327;-81
2024/01/25 07:11:54;;;;;;;15.57;5.67;;;;;;;11.86;53.04;100093.44;6735876;29;20287;-81
2024/01/25 07:15:16;;;;;;;23.97;7.30;;;;;;;11.74;52.94;100076.00;6735981;29;20231;-81
2024/01/25 07:18:37;;;;;;;17.57;6.33;;;;;;;11.87;52.82;100078.91;6735134;29;20339;-81
2024/01/25 07:21:59;;;;;;;21.87;5.20;;;;;;;11.85;52.81;100083.63;6730261;29;20388;-81
2024/01/25 07:25:22;;;;;;;15.70;5.00;;;;;;;11.81;52.90;100083.16;6734974;29;20236;-80
2024/01/25 07:28:43;;;;;;;14.53;6.20;;;;;;;11.98;53.16;100092.00;6733325;29;20311;-81
2024/01/25 07:32:05;;;;;;;23.13;6.07;;;;;;;12.01;53.12;100083.50;6720670;29;20268;-83
2024/01/25 07:35:27;;;;;;;15.57;4.93;;;;;;;11.40;54.01;100107.94;6735043;29;20710;-81
2024/01/25 07:38:48;;;;;;;15.20;6.17;;;;;;;11.57;53.61;100104.94;6732011;29;20221;-81
2024/01/25 07:42:12;;;;;;;28.90;9.93;;;;;;;11.92;52.00;100109.75;6735032;29;20275;-81
2024/01/25 07:45:33;;;;;;;28.17;9.07;;;;;;;11.32;53.53;100118.78;6734759;29;20554;-82
2024/01/25 07:48:55;;;;;;;21.47;7.00;;;;;;;11.47;53.64;100090.00;6734224;29;20714;-82
2024/01/25 07:52:16;;;;;;;27.43;10.80;;;;;;;11.44;53.42;100117.34;6734938;29;20299;-83
2024/01/25 07:55:38;;;;;;;26.30;9.63;;;;;;;11.29;53.96;100092.16;6734194;29;20235;-83
2024/01/25 07:59:01;;;;;;;19.37;7.23;;;;;;;11.37;53.35;100102.88;6730914;29;20928;-83
2024/01/25 08:02:22;;;;;;;19.23;7.10;;;;;;;11.18;53.91;100085.31;6733669;29;20596;-81
2024/01/25 08:05:44;;;;;;;25.33;10.80;;;;;;;11.25;54.49;100097.06;6735602;29;20358;-82
2024/01/25 08:09:06;;;;;;;23.60;8.70;;;;;;;11.44;54.35;100090.34;6737304;29;20331;-83
2024/01/25 08:12:27;;;;;;;22.07;9.37;;;;;;;11.66;54.14;100111.16;6737415;29;20217;-82
2024/01/25 08:15:51;;;;;;;20.87;8.17;;;;;;;11.91;54.03;100120.75;6738281;29;20299;-81
2024/01/25 08:19:13;;;;;;;22.20;9.77;;;;;;;11.51;52.95;100112.94;6741256;29;20280;-81
2024/01/25 08:22:35;;;;;;;17.10;7.03;;;;;;;11.00;55.24;100124.38;6742220;29;20243;-83
2024/01/25 08:25:56;;;;;;;24.20;10.37;;;;;;;11.11;55.16;100134.78;6741603;29;20219;-83
2024/01/25 08:29:18;;;;;;;29.43;12.70;;;;;;;11.14;55.49;100126.31;6738179;29;20232;-82
2024/01/25 08:32:41;;;;;;;25.20;10.30;;;;;;;11.72;55.68;100119.41;6736177;29;20644;-82
2024/01/25 08:36:02;;;;;;;26.83;9.17;;;;;;;12.26;54.37;100117.38;6709337;29;20236;-81
2024/01/25 08:39:24;;;;;;;29.33;8.83;;;;;;;12.76;53.58;100107.53;6719360;29;20807;-81
2024/01/25 08:42:45;;;;;;;20.63;9.57;;;;;;;12.62;52.75;100116.50;6734799;29;20691;-81
2024/01/25 08:46:07;;;;;;;28.27;9.30;;;;;;;12.87;52.94;100096.22;6733864;29;20217;-83
2024/01/25 08:49:30;;;;;;;23.10;8.07;;;;;;;14.91;48.00;100115.94;6733852;29;20224;-83
2024/01/25 08:52:51;;;;;;;18.67;7.17;;;;;;;16.66;44.06;100114.63;6733510;29;20301;-81
2024/01/25 08:56:13;;;;;;;26.10;6.97;;;;;;;17.91;41.72;100122.06;6740900;29;20209;-82
2024/01/25 08:59:37;;;;;;;21.40;6.30;;;;;;;18.31;40.42;100115.25;6750269;29;20242;-82
2024/01/25 09:02:58;;;;;;;15.87;6.53;;;;;;;18.16;41.01;100136.63;6738831;29;20611;-80
2024/01/25 09:06:21;;;;;;;15.73;5.90;;;;;;;18.13;40.93;100121.50;6730538;29;20402;-81
2024/01/25 09:09:44;;;;;;;22.93;7.00;;;;;;;18.28;40.02;100134.84;6711804;29;20435;-81
2024/01/25 09:13:06;;;;;;;17.07;6.93;;;;;;;16.39;43.85;100145.66;6733592;29;20296;-81
2024/01/25 09:16:27;;;;;;;19.20;6.37;;;;;;;15.81;45.93;100143.69;6738235;29;20248;-81
2024/01/25 09:19:49;;;;;;;18.80;5.83;;;;;;;15.73;45.32;100136.56;6735707;29;20324;-80
2024/01/25 09:23:12;;;;;;;23.63;6.03;;;;;;;15.68;46.31;100155.34;6735900;29;20239;-81
2024/01/25 09:26:33;;;;;;;13.27;5.00;;;;;;;15.12;47.15;100153.00;6735562;29;20210;-81
2024/01/25 09:29:55;;;;;;;22.10;5.93;;;;;;;15.09;48.01;100140.66;6735445;29;20320;-80
2024/01/25 09:33:18;;;;;;;23.03;6.33;;;;;;;15.05;48.05;100165.72;6735633;29;20281;-84
2024/01/25 09:36:39;;;;;;;15.97;5.07;;;;;;;14.99;47.89;100164.63;6734649;29;20267;-80
2024/01/25 09:40:03;;;;;;;15.27;5.43;;;;;;;15.17;47.53;100170.38;6732603;29;20240;-80
2024/01/25 09:43:25;;;;;;;17.10;5.27;;;;;;;15.18;47.44;100168.50;6731908;29;20232;-80
2024/01/25 09:46:46;;;;;;;16.50;5.00;;;;;;;15.46;46.94;100169.31;6731839;29;20303;-80
2024/01/25 09:50:09;;;;;;;19.20;5.20;;;;;;;14.93;48.22;100179.03;6732196;29;20385;-80
2024/01/25 09:53:33;;;;;;;17.30;4.60;;;;;;;15.47;46.27;100166.38;6731020;29;20212;-81
2024/01/25 09:56:56;;;;;;;16.60;4.20;;;;;;;15.58;46.04;100167.66;6731834;29;20205;-83
2024/01/25 10:00:18;;;;;;;17.43;5.90;;;;;;;15.83;44.50;100166.06;6734330;29;20314;-81
2024/01/25 10:03:41;;;;;;;19.47;5.00;;;;;;;15.44;44.93;100171.38;6735099;29;20222;-85
2024/01/25 10:07:02;;;;;;;16.47;4.93;;;;;;;15.30;45.29;100175.91;6732634;29;20216;-86
2024/01/25 10:10:24;;;;;;;19.77;5.10;;;;;;;15.82;44.82;100167.13;6740312;29;20228;-82
2024/01/25 10:13:50;;;;;;;18.50;4.50;;;;;;;16.03;43.50;100172.38;6744702;29;20237;-87
2024/01/25 10:17:12;;;;;;;15.57;4.70;;;;;;;16.12;43.10;100163.84;6734080;29;20202;-82
2024/01/25 10:20:34;;;;;;;16.23;4.70;;;;;;;16.63;42.97;100136.84;6733241;29;20276;-87
2024/01/25 10:23:58;;;;;;;16.27;5.10;;;;;;;16.54;43.35;100160.72;6733558;29;20220;-86
2024/01/25 10:27:19;;;;;;;19.07;4.83;;;;;;;16.36;43.77;100168.66;6733109;29;20310;-86
2024/01/25 10:30:42;;;;;;;20.63;5.57;;;;;;;16.41;43.97;100163.47;6734229;29;20712;-85
2024/01/25 10:34:03;;;;;;;15.37;4.43;;;;;;;15.64;45.50;100150.53;6731243;29;20257;-82
2024/01/25 10:37:26;;;;;;;19.67;5.20;;;;;;;15.88;45.22;100163.56;6725398;29;20239;-85
2024/01/25 10:40:47;;;;;;;15.30;4.50;;;;;;;15.61;45.28;100145.50;6732429;29;20300;-84
2024/01/25 10:44:09;;;;;;;14.80;4.70;;;;;;;15.27;45.40;100151.00;6730357;29;20703;-83
2024/01/25 10:47:35;;;;;;;21.03;5.37;;;;;;;15.03;46.28;100144.19;6727563;29;20595;-85
2024/01/25 10:50:56;;;;;;;16.10;6.07;;;;;;;15.61;46.22;100143.63;6727684;29;20309;-85
2024/01/25 10:54:18;;;;;;;18.07;5.10;;;;;;;15.40;45.91;100137.50;6723595;29;20237;-85
2024/01/25 10:57:43;;;;;;;13.40;4.50;;;;;;;15.71;45.67;100132.34;6727264;29;20359;-85
2024/01/25 11:01:10;;;;;;;16.43;4.80;;;;;;;15.69;45.23;100138.00;6729047;29;20324;-85
2024/01/25 11:04:33;;;;;;;15.47;4.47;;;;;;;15.84;45.09;100126.94;6728911;29;20570;-85
2024/01/25 11:07:55;;;;;;;13.87;4.50;;;;;;;15.72;44.72;100125.88;6729582;29;20246;-80
2024/01/25 11:11:19;;;;;;;14.43;4.80;;;;;;;15.48;44.73;100116.41;6731237;29;20210;-81
2024/01/25 11:14:40;;;;;;;12.60;4.20;;;;;;;15.73;44.24;100119.38;6735821;29;20495;-82
2024/01/25 11:18:03;;;;;;;13.87;5.43;;;;;;;15.80;44.18;100099.31;6736277;29;20752;-80
2024/01/25 11:21:30;;;;;;;26.70;5.37;;;;;;;15.80;44.45;100106.66;6737087;29;20236;-81
2024/01/25 11:24:51;;;;;;;15.73;4.97;;;;;;;16.14;44.11;100090.13;6733131;29;20235;-86
2024/01/25 11:28:15;;;;;;;18.70;4.47;;;;;;;15.53;44.11;100097.63;6733484;29;20258;-80
2024/01/25 11:31:37;;;;;;;15.93;5.23;;;;;;;16.01;43.14;100071.94;6734649;29;20218;-80
2024/01/25 11:34:59;;;;;;;13.20;4.47;;;;;;;15.66;43.42;100094.06;6734180;29;20251;-82
2024/01/25 11:38:22;;;;;;;18.80;5.33;;;;;;;15.74;43.37;100078.41;6734717;29;20240;-82
2024/01/25 11:41:44;;;;;;;15.93;4.87;;;;;;;16.00;43.13;100072.13;6735290;29;20273;-85
2024/01/25 11:45:07;;;;;;;14.40;4.40;;;;;;;16.08;43.59;100072.78;6735437;29;20208;-83
2024/01/25 11:48:29;;;;;;;20.80;5.67;;;;;;;16.32;42.65;100057.66;6734457;29;20271;-85
2024/01/25 11:51:50;;;;;;;16.70;5.23;;;;;;;16.04;42.25;100063.34;6734692;29;20265;-83
2024/01/25 11:55:13;;;;;;;18.30;5.40;;;;;;;16.94;41.47;100050.66;6735258;29;20278;-83
2024/01/25 11:58:35;;;;;;;17.93;4.87;;;;;;;16.48;40.54;100052.66;6733860;29;20374;-80
2024/01/25 12:01:56;;;;;;;15.03;4.20;;;;;;;16.38;41.35;100063.16;6733872;29;20277;-80
2024/01/25 12:05:18;;;;;;;14.47;3.67;;;;;;;16.54;41.18;100031.91;6734137;29;20300;-82
2024/01/25 12:08:39;;;;;;;16.07;3.97;;;;;;;16.85;41.16;100059.25;6727011;29;20449;-82
2024/01/25 12:12:03;;;;;;;13.43;4.40;;;;;;;16.59;41.71;100051.16;6733741;29;20303;-83
2024/01/25 12:15:24;;;;;;;17.63;4.17;;;;;;;16.87;40.91;100043.53;6734020;29;20732;-83
2024/01/25 12:18:46;;;;;;;12.67;3.87;;;;;;;17.26;40.42;100041.47;6733113;29;20263;-81
2024/01/25 12:22:07;;;;;;;11.67;3.60;;;;;;;16.87;40.23;100030.75;6733844;29;20238;-81
2024/01/25 12:25:29;;;;;;;11.57;3.47;;;;;;;16.42;40.58;100042.63;6731311;29;20213;-82
2024/01/25 12:28:52;;;;;;;13.80;4.07;;;;;;;16.75;40.48;100031.66;6732934;29;20229;-82
2024/01/25 12:32:13;;;;;;;15.17;4.07;;;;;;;16.63;39.73;100027.91;6733258;29;20801;-84
2024/01/25 12:35:35;;;;;;;14.90;4.33;;;;;;;16.50;41.61;100020.59;6734081;29;20289;-82
2024/01/25 12:38:56;;;;;;;12.03;3.70;;;;;;;16.27;42.26;100022.09;6733234;29;20800;-81
2024/01/25 12:42:18;;;;;;;12.87;4.20;;;;;;;16.30;43.08;100021.66;6735774;29;20270;-81
2024/01/25 12:45:41;;;;;;;13.17;4.27;;;;;;;16.54;42.34;100021.00;6734773;29;20353;-84
2024/01/25 12:49:03;;;;;;;13.73;4.03;;;;;;;16.48;42.46;100019.16;6732960;29;20855;-83
2024/01/25 12:52:25;;;;;;;13.27;3.87;;;;;;;16.65;42.52;100012.19;6733714;29;20213;-82
2024/01/25 12:55:46;;;;;;;13.30;3.73;;;;;;;16.29;42.33;100022.72;6733887;29;20337;-83
2024/01/25 12:59:08;;;;;;;12.17;3.70;;;;;;;16.42;41.29;100015.41;6733722;29;20269;-81
2024/01/25 13:02:31;;;;;;;10.13;4.67;;;;;;;16.53;41.00;99994.84;6734297;29;20324;-81
2024/01/25 13:05:53;;;;;;;10.90;3.60;;;;;;;16.81;40.76;99998.09;6731852;29;20250;-83
2024/01/25 13:09:15;;;;;;;14.37;3.57;;;;;;;16.65;40.64;99991.25;6733651;29;20373;-81
2024/01/25 13:12:37;;;;;;;9.87;3.50;;;;;;;16.32;41.82;99976.00;6734068;29;20580;-82
2024/01/25 13:15:58;;;;;;;14.13;3.70;;;;;;;16.50;40.66;99973.47;6734338;29;20349;-82
2024/01/25 13:19:21;;;;;;;14.13;3.43;;;;;;;17.03;39.78;99970.31;6733894;29;20297;-82
2024/01/25 13:22:43;;;;;;;11.13;3.50;;;;;;;17.17;39.83;99984.69;6736778;29;20231;-82
2024/01/25 13:26:05;;;;;;;11.37;4.20;;;;;;;17.22;39.44;99971.25;6732118;29;20284;-82
2024/01/25 13:29:26;;;;;;;8.50;3.57;;;;;;;17.06;39.25;99967.16;6730963;29;20735;-82
2024/01/25 13:32:48;;;;;;;12.77;3.80;;;;;;;17.04;39.94;99955.63;6733975;29;20348;-83
2024/01/25 13:36:13;;;;;;;13.23;3.53;;;;;;;16.96;40.54;99941.41;6734015;29;20218;-85
2024/01/25 13:39:34;;;;;;;9.03;3.23;;;;;;;17.19;39.72;99936.25;6735446;29;20234;-81
2024/01/25 13:42:56;;;;;;;10.60;3.20;;;;;;;16.55;39.94;99932.81;6734748;29;20325;-82
2024/01/25 13:46:18;;;;;;;11.37;3.47;;;;;;;16.78;40.32;99946.75;6733586;29;20669;-81
2024/01/25 13:49:39;;;;;;;10.30;2.83;;;;;;;16.62;39.64;99939.06;6714550;29;20259;-81
2024/01/25 13:53:02;;;;;;;10.10;3.20;;;;;;;16.81;39.64;99938.16;6731160;29;20307;-81
2024/01/25 13:56:24;;;;;;;12.13;3.37;;;;;;;17.42;39.06;99936.53;6710315;29;20688;-81
2024/01/25 13:59:45;;;;;;;10.13;3.97;;;;;;;17.12;39.42;99933.59;6730696;29;20256;-80
2024/01/25 14:03:06;;;;;;;9.10;3.40;;;;;;;17.53;38.72;99927.63;6734564;29;20329;-81
2024/01/25 14:06:28;;;;;;;13.90;4.07;;;;;;;17.05;39.71;99915.59;6733909;29;20306;-82
2024/01/25 14:09:52;;;;;;;15.30;3.97;;;;;;;16.31;41.04;99903.56;6734139;29;20375;-81
2024/01/25 14:13:13;;;;;;;11.77;3.10;;;;;;;16.61;40.71;99921.91;6733929;29;20214;-80
2024/01/25 14:16:35;;;;;;;10.00;3.23;;;;;;;16.81;40.33;99916.38;6730762;29;20209;-80
2024/01/25 14:19:57;;;;;;;10.07;3.40;;;;;;;16.75;40.51;99907.16;6732690;29;20276;-84
2024/01/25 14:23:18;;;;;;;10.20;4.03;;;;;;;16.97;40.42;99918.56;6733849;29;20302;-82
2024/01/25 14:26:41;;;;;;;16.37;4.33;;;;;;;17.06;40.53;99933.63;6734571;29;20245;-80
2024/01/25 14:30:04;;;;;;;17.13;8.13;;;;;;;17.22;39.97;99908.56;6734693;29;20328;-80
2024/01/25 14:33:25;;;;;;;10.57;4.20;;;;;;;17.37;39.82;99899.00;6734108;29;20217;-82
2024/01/25 14:36:47;;;;;;;17.00;4.60;;;;;;;16.74;41.28;99893.78;6731493;29;20259;-83
2024/01/25 14:40:09;;;;;;;11.20;3.53;;;;;;;16.84;40.91;99892.25;6733395;29;20235;-81
2024/01/25 14:43:32;;;;;;;12.80;3.27;;;;;;;16.46;41.75;99902.28;6738329;29;20704;-81
2024/01/25 14:46:53;;;;;;;13.77;4.50;;;;;;;16.87;41.21;99893.72;6724622;29;20309;-81
2024/01/25 14:50:15;;;;;;;14.73;3.90;;;;;;;16.82;41.33;99896.25;6737278;29;20255;-81
2024/01/25 14:53:36;;;;;;;9.30;3.23;;;;;;;16.21;42.37;99914.91;6736677;29;20352;-81
2024/01/25 14:56:58;;;;;;;9.63;3.07;;;;;;;16.53;41.83;99902.25;6736259;29;20245;-81
2024/01/25 15:00:21;;;;;;;13.70;3.67;;;;;;;16.78;41.31;99895.00;6730085;29;20744;-82
2024/01/25 15:03:43;;;;;;;12.73;4.40;;;;;;;16.53;42.51;99891.38;6737522;29;20336;-80
2024/01/25 15:07:04;;;;;;;9.63;3.33;;;;;;;16.57;42.45;99896.16;6736679;29;20245;-82
2024/01/25 15:10:26;;;;;;;12.33;3.67;;;;;;;16.64;42.38;99885.25;6736978;29;20329;-79
2024/01/25 15:13:48;;;;;;;11.67;3.80;;;;;;;16.78;42.68;99898.56;6740558;29;20256;-80
2024/01/25 15:17:11;;;;;;;10.33;3.50;;;;;;;16.72;42.85;99906.78;6734210;29;20703;-83
2024/01/25 15:20:35;;;;;;;9.67;3.07;;;;;;;16.32;43.73;99895.19;6730270;29;20726;-82
2024/01/25 15:23:57;;;;;;;12.47;3.73;;;;;;;16.30;43.04;99912.78;6733718;29;20315;-83
2024/01/25 15:27:18;;;;;;;18.20;4.00;;;;;;;16.41;43.56;99906.72;6732745;29;20239;-81
2024/01/25 15:30:40;;;;;;;8.53;3.03;;;;;;;16.52;43.36;99895.97;6734870;29;20260;-85
2024/01/25 15:34:03;;;;;;;13.43;4.23;;;;;;;16.52;43.39;99904.13;6734422;29;20683;-84